Time;durP1;ratioP1;P1;durP2;ratioP2;P2;SDS_P1;SDS_P2;PMS_P1;PMS_P2;Temp;Humidity;BMP_temperature;BMP_pressure;BME280_temperature;BME280_humidity;BME280_pressure;Samples;Min_cycle;Max_cycle;Signal;HPM_P1;HPM_P2
2023/05/10 00:01:36;;;;;;;4.13;3.23;;;;;;;9.45;100.00;99687.97;5092201;28;20198;-77
2023/05/10 00:04:03;;;;;;;5.50;3.43;;;;;;;9.48;100.00;99685.25;5092284;28;20214;-75
2023/05/10 00:06:29;;;;;;;6.50;4.07;;;;;;;9.43;100.00;99682.97;5091883;28;20208;-77
2023/05/10 00:08:56;;;;;;;8.00;3.90;;;;;;;9.52;100.00;99676.53;5092127;28;20214;-77
2023/05/10 00:11:25;;;;;;;4.30;3.37;;;;;;;9.50;100.00;99673.22;5092041;28;20198;-78
2023/05/10 00:13:51;;;;;;;3.97;3.03;;;;;;;9.46;100.00;99676.88;5091896;28;20230;-76
2023/05/10 00:16:18;;;;;;;3.97;3.53;;;;;;;9.45;100.00;99675.22;5091976;28;20694;-76
2023/05/10 00:18:45;;;;;;;4.47;2.83;;;;;;;9.36;100.00;99666.38;5091980;28;20706;-76
2023/05/10 00:21:12;;;;;;;6.70;3.87;;;;;;;9.44;100.00;99679.50;5091552;28;20202;-76
2023/05/10 00:23:39;;;;;;;4.70;3.57;;;;;;;9.42;100.00;99672.84;5091852;28;20693;-77
2023/05/10 00:26:05;;;;;;;4.70;3.23;;;;;;;9.37;100.00;99667.22;5091822;28;20198;-77
2023/05/10 00:28:34;;;;;;;7.20;3.50;;;;;;;9.43;100.00;99669.41;5091657;28;20233;-77
2023/05/10 00:31:00;;;;;;;4.17;3.33;;;;;;;9.38;100.00;99668.84;5091596;28;20198;-76
2023/05/10 00:33:27;;;;;;;4.17;3.43;;;;;;;9.32;100.00;99666.66;5091488;28;20233;-76
2023/05/10 00:35:54;;;;;;;4.80;3.73;;;;;;;9.32;100.00;99664.09;5091997;28;20565;-77
2023/05/10 00:38:21;;;;;;;3.70;2.80;;;;;;;9.29;100.00;99660.81;5091201;28;20214;-77
2023/05/10 00:40:48;;;;;;;4.77;3.37;;;;;;;9.22;100.00;99658.69;5091399;28;20206;-76
2023/05/10 00:43:15;;;;;;;5.27;3.20;;;;;;;9.27;100.00;99654.97;5091157;28;20218;-76
2023/05/10 00:45:43;;;;;;;4.63;3.43;;;;;;;9.37;100.00;99657.81;5091111;28;20666;-77
2023/05/10 00:48:10;;;;;;;4.00;2.87;;;;;;;9.27;100.00;99657.50;5091021;28;20214;-76
2023/05/10 00:50:37;;;;;;;5.07;3.77;;;;;;;9.32;100.00;99659.00;5091156;28;20205;-76
2023/05/10 00:53:04;;;;;;;5.53;3.60;;;;;;;9.24;100.00;99660.25;5091089;28;20624;-77
2023/05/10 00:55:31;;;;;;;4.63;3.67;;;;;;;9.32;100.00;99664.09;5091101;28;20670;-76
2023/05/10 00:57:58;;;;;;;5.97;3.83;;;;;;;9.27;100.00;99657.50;5090981;28;20311;-76
2023/05/10 01:00:25;;;;;;;5.40;3.30;;;;;;;9.24;100.00;99654.31;5091202;28;20205;-75
2023/05/10 01:02:54;;;;;;;4.80;3.50;;;;;;;9.20;100.00;99656.25;5090849;28;20222;-76
2023/05/10 01:05:21;;;;;;;4.23;2.83;;;;;;;9.21;100.00;99651.94;5090140;28;20209;-77
2023/05/10 01:07:48;;;;;;;3.83;2.80;;;;;;;9.25;100.00;99649.16;5090690;28;20217;-76
2023/05/10 01:10:15;;;;;;;3.03;2.67;;;;;;;9.22;100.00;99649.31;5091144;28;20201;-76
2023/05/10 01:12:46;;;;;;;5.13;2.83;;;;;;;9.08;100.00;99644.19;5090806;28;20226;-76
2023/05/10 01:15:14;;;;;;;5.57;3.27;;;;;;;9.03;100.00;99646.19;5091052;28;20205;-77
2023/05/10 01:17:44;;;;;;;4.00;2.90;;;;;;;9.06;100.00;99646.00;5090580;28;20635;-77
2023/05/10 01:20:13;;;;;;;5.07;3.37;;;;;;;9.06;100.00;99638.34;5090710;28;20198;-78
2023/05/10 01:23:01;;;;;;;4.47;3.37;;;;;;;8.97;100.00;99634.59;5090553;28;20197;-77
2023/05/10 01:25:59;;;;;;;6.27;3.60;;;;;;;8.93;100.00;99634.84;5090894;28;20661;-77
2023/05/10 01:29:08;;;;;;;8.33;3.50;;;;;;;8.92;100.00;99638.31;5090597;28;20229;-76
2023/05/10 01:32:02;;;;;;;3.77;2.87;;;;;;;8.92;100.00;99633.22;5090617;28;20589;-77
2023/05/10 01:34:36;;;;;;;4.70;2.97;;;;;;;8.76;100.00;99631.53;5090807;28;20582;-76
2023/05/10 01:37:10;;;;;;;5.37;3.20;;;;;;;8.72;100.00;99636.88;5090685;28;20202;-77
2023/05/10 01:39:45;;;;;;;4.97;3.40;;;;;;;8.74;100.00;99627.41;5090355;28;20225;-77
2023/05/10 01:42:17;;;;;;;4.23;3.27;;;;;;;8.63;100.00;99624.63;5090293;28;20197;-77
2023/05/10 01:44:51;;;;;;;2.53;2.33;;;;;;;8.61;100.00;99627.28;5090360;28;20252;-76
2023/05/10 01:47:27;;;;;;;3.07;2.33;;;;;;;8.65;100.00;99626.19;5090201;28;20205;-77
2023/05/10 01:49:56;;;;;;;3.23;2.37;;;;;;;8.64;100.00;99622.03;5090160;28;20197;-76
2023/05/10 01:52:37;;;;;;;5.93;3.03;;;;;;;8.67;100.00;99628.66;5089673;28;20731;-77
2023/05/10 01:55:08;;;;;;;3.00;2.37;;;;;;;8.62;100.00;99628.91;5090316;28;20201;-77
2023/05/10 01:57:37;;;;;;;2.87;2.47;;;;;;;8.63;100.00;99628.00;5090268;28;20229;-76
2023/05/10 02:00:05;;;;;;;2.40;2.10;;;;;;;8.59;100.00;99626.53;5089909;28;20205;-76
2023/05/10 02:02:38;;;;;;;8.03;3.73;;;;;;;8.60;100.00;99630.72;5089644;28;20255;-76
2023/05/10 02:05:07;;;;;;;4.77;2.80;;;;;;;8.63;100.00;99633.09;5090053;28;20198;-76
2023/05/10 02:07:36;;;;;;;3.17;2.53;;;;;;;8.70;100.00;99631.88;5089912;28;20217;-76
2023/05/10 02:10:05;;;;;;;2.67;1.90;;;;;;;8.57;100.00;99634.25;5090041;28;20206;-77
2023/05/10 02:12:34;;;;;;;3.67;2.73;;;;;;;8.50;100.00;99630.41;5089475;28;20576;-77
2023/05/10 02:15:03;;;;;;;3.63;2.20;;;;;;;8.52;100.00;99632.88;5089496;28;20205;-76
2023/05/10 02:17:31;;;;;;;4.33;2.70;;;;;;;8.58;100.00;99627.44;5089376;28;20788;-76
2023/05/10 02:20:00;;;;;;;4.20;3.13;;;;;;;8.60;100.00;99630.72;5089483;28;20194;-76
2023/05/10 02:22:28;;;;;;;4.37;2.80;;;;;;;8.43;100.00;99633.38;5089782;28;20685;-76
2023/05/10 02:24:58;;;;;;;2.70;2.43;;;;;;;8.46;100.00;99638.31;5089787;28;20194;-76
2023/05/10 02:27:27;;;;;;;5.93;2.27;;;;;;;8.36;100.00;99631.13;5089682;28;20194;-76
2023/05/10 02:29:54;;;;;;;2.57;2.23;;;;;;;8.32;100.00;99634.78;5089980;28;20209;-76
2023/05/10 02:32:23;;;;;;;2.60;2.37;;;;;;;8.35;100.00;99632.06;5089764;28;20202;-76
2023/05/10 02:34:51;;;;;;;3.90;3.10;;;;;;;8.37;100.00;99625.13;5089760;28;20214;-76
2023/05/10 02:37:21;;;;;;;4.43;2.93;;;;;;;8.45;100.00;99631.56;5089542;28;20588;-76
2023/05/10 02:39:48;;;;;;;2.90;2.37;;;;;;;8.43;100.00;99631.66;5089733;28;20225;-77
2023/05/10 02:42:18;;;;;;;3.50;2.50;;;;;;;8.30;100.00;99628.94;5089681;28;20698;-77
2023/05/10 02:44:48;;;;;;;5.27;3.37;;;;;;;8.25;100.00;99635.97;5089824;28;20602;-77
2023/05/10 02:47:15;;;;;;;4.67;2.50;;;;;;;8.37;100.00;99637.88;5089316;28;20588;-76
2023/05/10 02:49:42;;;;;;;2.23;1.83;;;;;;;8.36;100.00;99633.69;5089705;28;20232;-77
2023/05/10 02:52:10;;;;;;;4.60;3.20;;;;;;;8.39;100.00;99631.00;5089222;28;20205;-77
2023/05/10 02:54:46;;;;;;;2.30;1.93;;;;;;;8.41;100.00;99640.28;5089755;28;20244;-75
2023/05/10 02:57:19;;;;;;;3.77;2.60;;;;;;;8.26;100.00;99647.84;5089659;28;20620;-76
2023/05/10 02:59:46;;;;;;;4.17;2.57;;;;;;;8.19;100.00;99646.50;5089720;28;20217;-76
2023/05/10 03:02:13;;;;;;;2.67;2.03;;;;;;;8.07;100.00;99644.63;5089232;28;20209;-75
2023/05/10 03:04:40;;;;;;;2.40;1.97;;;;;;;8.10;100.00;99647.81;5089196;28;20278;-75
2023/05/10 03:07:08;;;;;;;5.57;2.67;;;;;;;8.04;100.00;99637.16;5089221;28;20221;-76
2023/05/10 03:09:35;;;;;;;2.03;1.80;;;;;;;7.98;100.00;99642.56;5089446;28;20624;-74
2023/05/10 03:12:09;;;;;;;3.43;2.73;;;;;;;7.97;100.00;99640.91;5088839;28;20212;-75
2023/05/10 03:14:50;;;;;;;2.97;2.67;;;;;;;7.90;100.00;99641.22;5089260;28;20305;-75
2023/05/10 03:17:24;;;;;;;2.43;2.20;;;;;;;7.87;100.00;99641.38;5089272;28;20251;-75
2023/05/10 03:19:55;;;;;;;5.80;2.47;;;;;;;7.92;100.00;99631.78;5089130;28;20205;-75
2023/05/10 03:22:26;;;;;;;2.80;2.50;;;;;;;8.03;100.00;99630.38;5089189;28;20198;-77
2023/05/10 03:24:56;;;;;;;2.50;2.00;;;;;;;7.94;100.00;99624.91;5089328;28;20198;-76
2023/05/10 03:27:27;;;;;;;3.80;2.50;;;;;;;7.90;100.00;99620.84;5089689;28;20481;-76
2023/05/10 03:29:55;;;;;;;2.90;2.23;;;;;;;7.87;100.00;99621.03;5093049;28;20607;-74
2023/05/10 03:32:23;;;;;;;2.03;1.70;;;;;;;7.79;100.00;99617.22;5092832;28;20202;-77
2023/05/10 03:34:50;;;;;;;2.73;2.13;;;;;;;7.79;100.00;99628.22;5092752;28;20234;-75
2023/05/10 03:37:17;;;;;;;3.57;2.50;;;;;;;7.89;100.00;99631.94;5092577;28;20202;-77
2023/05/10 03:39:43;;;;;;;4.77;2.90;;;;;;;7.88;100.00;99632.88;5092788;28;20229;-77
2023/05/10 03:42:11;;;;;;;2.87;2.60;;;;;;;7.98;100.00;99629.84;5092662;28;20205;-77
2023/05/10 03:44:39;;;;;;;2.63;2.10;;;;;;;7.81;100.00;99630.72;5092585;28;20218;-77
2023/05/10 03:47:06;;;;;;;2.53;2.30;;;;;;;7.92;100.00;99633.53;5092241;28;20198;-77
2023/05/10 03:49:33;;;;;;;4.13;2.90;;;;;;;7.87;100.00;99638.84;5092736;28;20236;-76
2023/05/10 03:52:00;;;;;;;4.30;3.17;;;;;;;7.86;100.00;99642.31;5092252;28;20194;-77
2023/05/10 03:54:27;;;;;;;3.03;2.50;;;;;;;7.90;100.00;99636.13;5092207;28;20241;-77
2023/05/10 03:56:54;;;;;;;4.00;3.20;;;;;;;7.92;100.00;99644.53;5092221;28;20221;-76
2023/05/10 03:59:20;;;;;;;5.20;3.37;;;;;;;8.01;100.00;99647.50;5092599;28;20694;-76
2023/05/10 04:01:49;;;;;;;3.40;2.17;;;;;;;8.02;100.00;99644.03;5092124;28;20699;-76
2023/05/10 04:04:18;;;;;;;3.80;3.03;;;;;;;8.06;100.00;99651.44;5092156;28;20214;-77
2023/05/10 04:06:44;;;;;;;5.17;3.33;;;;;;;8.08;100.00;99657.25;5091971;28;20198;-77
2023/05/10 04:09:11;;;;;;;4.03;2.87;;;;;;;8.18;100.00;99660.16;5092368;28;20222;-76
2023/05/10 04:11:38;;;;;;;4.30;3.33;;;;;;;8.23;100.00;99658.19;5091959;28;20221;-77
2023/05/10 04:14:05;;;;;;;3.50;2.80;;;;;;;8.25;100.00;99660.66;5092267;28;20233;-76
2023/05/10 04:16:32;;;;;;;4.33;3.63;;;;;;;8.31;100.00;99661.13;5091856;28;20225;-77
2023/05/10 04:19:00;;;;;;;5.13;3.93;;;;;;;8.25;100.00;99658.09;5092051;28;20221;-76
2023/05/10 04:21:27;;;;;;;7.07;3.40;;;;;;;8.31;100.00;99661.13;5091899;28;20748;-77
2023/05/10 04:23:54;;;;;;;4.33;3.43;;;;;;;8.23;100.00;99658.19;5091807;28;20218;-77
2023/05/10 04:26:21;;;;;;;3.43;3.13;;;;;;;8.27;100.00;99663.94;5091866;28;20202;-75
2023/05/10 04:28:48;;;;;;;5.40;2.97;;;;;;;8.36;100.00;99658.34;5091810;28;20218;-77
2023/05/10 04:31:15;;;;;;;3.27;2.40;;;;;;;8.49;100.00;99659.34;5091377;28;20205;-77
2023/05/10 04:33:42;;;;;;;3.90;2.60;;;;;;;8.58;100.00;99647.81;5091693;28;20796;-76
2023/05/10 04:36:10;;;;;;;6.07;3.77;;;;;;;8.80;100.00;99658.47;5091449;28;20198;-77
2023/05/10 04:38:37;;;;;;;4.10;3.23;;;;;;;8.73;100.00;99664.84;5091061;28;20217;-76
2023/05/10 04:41:07;;;;;;;3.77;3.10;;;;;;;9.02;100.00;99664.94;5091560;28;20220;-77
2023/05/10 04:43:34;;;;;;;3.87;2.93;;;;;;;9.09;100.00;99666.22;5091632;28;20220;-77
2023/05/10 04:46:01;;;;;;;4.70;2.83;;;;;;;9.27;100.00;99661.81;5091230;28;20205;-75
2023/05/10 04:48:28;;;;;;;5.43;3.83;;;;;;;9.34;100.00;99662.25;5090999;28;20218;-76
2023/05/10 04:50:55;;;;;;;3.97;3.20;;;;;;;9.49;100.00;99671.59;5091245;28;20197;-75
2023/05/10 04:53:23;;;;;;;4.10;3.10;;;;;;;9.52;100.00;99671.41;5091003;28;20324;-75
2023/05/10 04:55:50;;;;;;;6.33;3.90;;;;;;;9.75;100.00;99678.53;5091196;28;20194;-77
2023/05/10 04:58:17;;;;;;;4.17;2.90;;;;;;;9.89;100.00;99671.78;5091010;28;20226;-76
2023/05/10 05:00:44;;;;;;;5.67;4.03;;;;;;;10.07;100.00;99678.34;5090979;28;20198;-76
2023/05/10 05:03:10;;;;;;;5.50;3.47;;;;;;;10.30;100.00;99678.72;5090732;28;20660;-77
2023/05/10 05:05:37;;;;;;;8.87;3.60;;;;;;;10.25;100.00;99685.81;5091083;28;20198;-76
2023/05/10 05:08:04;;;;;;;4.73;3.23;;;;;;;10.45;100.00;99682.88;5090645;28;20221;-75
2023/05/10 05:10:32;;;;;;;6.23;3.80;;;;;;;10.57;100.00;99682.09;5090850;28;20227;-77
2023/05/10 05:12:59;;;;;;;7.27;4.20;;;;;;;10.59;100.00;99682.03;5090456;28;20226;-77
2023/05/10 05:15:26;;;;;;;4.90;3.07;;;;;;;10.81;100.00;99678.91;5090720;28;20300;-76
2023/05/10 05:17:53;;;;;;;5.27;3.23;;;;;;;10.82;100.00;99685.66;5091039;28;20222;-76
2023/05/10 05:20:20;;;;;;;6.93;4.07;;;;;;;10.84;100.00;99678.72;5091301;28;20225;-78
2023/05/10 05:22:47;;;;;;;6.73;3.77;;;;;;;11.11;100.00;99683.78;5090579;28;20741;-76
2023/05/10 05:25:14;;;;;;;3.90;2.73;;;;;;;11.31;100.00;99677.38;5090607;28;20259;-77
2023/05/10 05:27:43;;;;;;;6.53;3.40;;;;;;;11.32;100.00;99686.72;5090533;28;20202;-76
2023/05/10 05:30:10;;;;;;;3.27;2.50;;;;;;;11.60;100.00;99667.75;5091000;28;20202;-77
2023/05/10 05:32:37;;;;;;;3.67;3.00;;;;;;;11.63;100.00;99676.97;5090411;28;20218;-77
2023/05/10 05:35:05;;;;;;;7.27;4.70;;;;;;;12.23;100.00;99676.31;5090654;28;20229;-75
2023/05/10 05:37:32;;;;;;;6.97;4.47;;;;;;;12.32;100.00;99673.09;5090120;28;20259;-75
2023/05/10 05:40:00;;;;;;;5.93;3.73;;;;;;;12.58;100.00;99670.44;5090529;28;20220;-78
2023/05/10 05:42:27;;;;;;;5.13;3.50;;;;;;;12.58;100.00;99680.72;5089938;28;20275;-75
2023/05/10 05:44:56;;;;;;;5.10;3.27;;;;;;;12.72;100.00;99680.53;5090278;28;20197;-78
2023/05/10 05:47:22;;;;;;;5.10;3.23;;;;;;;12.40;100.00;99683.66;5090136;28;20219;-76
2023/05/10 05:49:49;;;;;;;4.63;2.97;;;;;;;12.10;100.00;99683.19;5090358;28;20198;-77
2023/05/10 05:52:16;;;;;;;5.20;2.90;;;;;;;12.40;100.00;99682.81;5090104;28;20557;-76
2023/05/10 05:54:44;;;;;;;5.70;3.73;;;;;;;12.85;100.00;99680.47;5090271;28;20920;-78
2023/05/10 05:57:11;;;;;;;4.73;3.40;;;;;;;12.72;98.03;99683.09;5090055;28;20717;-75
2023/05/10 05:59:41;;;;;;;4.63;3.20;;;;;;;12.60;100.00;99689.13;5090537;28;20591;-75
2023/05/10 06:02:10;;;;;;;2.73;2.33;;;;;;;12.99;98.78;99689.75;5090183;28;20194;-77
2023/05/10 06:04:36;;;;;;;4.03;2.60;;;;;;;13.14;98.96;99688.63;5090071;28;20218;-77
2023/05/10 06:07:03;;;;;;;5.50;2.90;;;;;;;12.95;100.00;99688.34;5089876;28;20677;-77
2023/05/10 06:09:30;;;;;;;2.73;2.07;;;;;;;13.24;100.00;99694.72;5090081;28;20694;-77
2023/05/10 06:11:57;;;;;;;3.43;2.20;;;;;;;13.23;100.00;99692.25;5090020;28;20202;-75
2023/05/10 06:14:24;;;;;;;3.73;2.63;;;;;;;13.63;100.00;99697.84;5089884;28;20227;-78
2023/05/10 06:16:50;;;;;;;3.60;2.47;;;;;;;13.93;100.00;99696.47;5089720;28;20687;-77
2023/05/10 06:19:19;;;;;;;5.10;2.37;;;;;;;13.87;96.04;99696.94;5090170;28;20212;-76
2023/05/10 06:21:45;;;;;;;4.33;2.50;;;;;;;14.18;100.00;99701.38;5089768;28;20217;-76
2023/05/10 06:24:12;;;;;;;4.43;2.70;;;;;;;14.06;100.00;99692.03;5089739;28;20228;-77
2023/05/10 06:26:39;;;;;;;4.33;2.30;;;;;;;14.15;97.28;99688.75;5089954;28;20668;-76
2023/05/10 06:29:06;;;;;;;4.40;2.10;;;;;;;14.42;97.92;99700.38;5089637;28;20214;-77
2023/05/10 06:31:33;;;;;;;4.07;2.30;;;;;;;14.35;96.51;99696.66;5089431;28;20569;-77
2023/05/10 06:33:59;;;;;;;3.93;2.20;;;;;;;14.58;95.65;99698.28;5089741;28;20646;-75
2023/05/10 06:36:28;;;;;;;2.93;2.13;;;;;;;14.74;91.61;99715.06;5089657;28;20212;-78
2023/05/10 06:38:54;;;;;;;4.73;2.80;;;;;;;14.45;91.11;99703.53;5089604;28;20217;-77
2023/05/10 06:41:21;;;;;;;2.40;2.03;;;;;;;14.75;94.54;99703.81;5089254;28;20201;-79
2023/05/10 06:43:48;;;;;;;3.67;2.13;;;;;;;14.72;90.18;99699.78;5089559;28;20221;-77
2023/05/10 06:46:15;;;;;;;3.77;2.33;;;;;;;14.94;89.42;99698.84;5089393;28;20209;-74
2023/05/10 06:48:42;;;;;;;3.23;2.27;;;;;;;15.06;89.01;99690.13;5089439;28;20228;-78
2023/05/10 06:51:08;;;;;;;4.47;2.03;;;;;;;14.91;88.49;99691.38;5089442;28;20194;-77
2023/05/10 06:53:37;;;;;;;3.43;2.40;;;;;;;15.34;87.44;99691.28;5089540;28;20556;-79
2023/05/10 06:56:04;;;;;;;4.03;2.50;;;;;;;15.34;86.79;99691.28;5089297;28;20202;-75
2023/05/10 06:58:32;;;;;;;2.93;2.37;;;;;;;15.12;84.86;99689.63;5089549;28;20213;-78
2023/05/10 07:01:03;;;;;;;2.83;2.13;;;;;;;15.02;84.31;99691.34;5089515;28;20194;-78
2023/05/10 07:03:30;;;;;;;2.43;1.90;;;;;;;15.45;83.45;99692.97;5091747;28;20553;-76
2023/05/10 07:06:02;;;;;;;7.30;2.73;;;;;;;16.01;85.18;99690.00;5093317;28;20200;-75
2023/05/10 07:08:30;;;;;;;1.73;1.27;;;;;;;16.17;82.32;99693.81;5093122;28;20231;-78
2023/05/10 07:11:03;;;;;;;2.67;1.90;;;;;;;16.34;77.81;99690.59;5093530;28;20213;-75
2023/05/10 07:13:30;;;;;;;2.53;1.93;;;;;;;16.45;78.55;99693.09;5093557;28;20225;-77
2023/05/10 07:15:57;;;;;;;4.73;1.70;;;;;;;16.32;75.13;99702.00;5092984;28;20259;-78
2023/05/10 07:18:23;;;;;;;4.77;2.40;;;;;;;16.39;79.82;99708.28;5092960;28;20231;-79
2023/05/10 07:20:50;;;;;;;5.87;1.90;;;;;;;16.54;80.21;99701.78;5093106;28;20202;-74
2023/05/10 07:23:18;;;;;;;3.10;1.93;;;;;;;16.63;75.96;99700.16;5093059;28;20234;-75
2023/05/10 07:25:46;;;;;;;3.57;2.20;;;;;;;16.92;70.37;99701.03;5092881;28;20650;-75
2023/05/10 07:28:14;;;;;;;2.70;1.70;;;;;;;16.74;70.16;99700.03;5092821;28;20226;-77
2023/05/10 07:30:41;;;;;;;2.07;1.57;;;;;;;16.52;73.42;99696.78;5093151;28;20206;-76
2023/05/10 07:33:09;;;;;;;2.40;1.67;;;;;;;16.42;73.73;99698.50;5092556;28;20220;-76
2023/05/10 07:35:36;;;;;;;4.60;1.60;;;;;;;16.77;68.04;99704.97;5092706;28;20233;-76
2023/05/10 07:38:03;;;;;;;2.30;1.77;;;;;;;16.98;69.35;99692.72;5092723;28;20244;-75
2023/05/10 07:40:30;;;;;;;2.77;1.67;;;;;;;17.08;70.51;99704.84;5092508;28;20198;-76
2023/05/10 07:42:57;;;;;;;4.60;2.00;;;;;;;17.42;67.88;99708.59;5092282;28;20252;-76
2023/05/10 07:45:25;;;;;;;3.97;1.60;;;;;;;16.69;72.62;99699.63;5093015;28;20661;-76
2023/05/10 07:47:52;;;;;;;2.27;1.67;;;;;;;17.05;69.38;99705.13;5092326;28;20225;-74
2023/05/10 07:50:19;;;;;;;2.47;1.97;;;;;;;17.19;67.81;99707.25;5092426;28;20612;-75
2023/05/10 07:52:46;;;;;;;2.87;1.83;;;;;;;17.15;68.62;99705.91;5092180;28;20245;-75
2023/05/10 07:55:12;;;;;;;2.07;1.67;;;;;;;17.06;68.18;99711.91;5092658;28;20230;-74
2023/05/10 07:57:39;;;;;;;3.20;1.70;;;;;;;17.62;66.42;99695.59;5092196;28;20202;-75
2023/05/10 08:00:10;;;;;;;3.23;2.03;;;;;;;17.66;66.79;99694.38;5092561;28;20209;-76
2023/05/10 08:02:38;;;;;;;2.27;1.63;;;;;;;16.84;64.28;99698.31;5091960;28;20687;-76
2023/05/10 08:05:05;;;;;;;2.80;2.10;;;;;;;17.48;65.87;99689.09;5092600;28;20743;-75
2023/05/10 08:07:33;;;;;;;2.43;1.77;;;;;;;17.56;65.41;99699.56;5091764;28;20265;-76
2023/05/10 08:10:00;;;;;;;2.93;1.97;;;;;;;17.48;62.86;99701.22;5092339;28;20204;-75
2023/05/10 08:12:27;;;;;;;1.40;1.30;;;;;;;17.39;59.59;99701.13;5092148;28;20233;-74
2023/05/10 08:14:53;;;;;;;1.70;1.43;;;;;;;17.27;57.66;99709.97;5091863;28;20236;-77
2023/05/10 08:17:20;;;;;;;1.93;1.57;;;;;;;17.10;55.18;99705.50;5091963;28;20615;-75
2023/05/10 08:19:48;;;;;;;2.27;1.53;;;;;;;17.01;58.07;99699.38;5091814;28;20222;-74
2023/05/10 08:22:15;;;;;;;2.33;1.70;;;;;;;17.50;59.33;99709.66;5091792;28;20198;-76
2023/05/10 08:24:42;;;;;;;2.33;1.80;;;;;;;17.94;57.06;99702.19;5091979;28;20251;-75
2023/05/10 08:27:09;;;;;;;1.83;1.43;;;;;;;17.85;54.43;99706.44;5091590;28;20206;-76
2023/05/10 08:29:36;;;;;;;1.63;1.40;;;;;;;18.04;59.76;99703.78;5091909;28;20213;-76
2023/05/10 08:32:03;;;;;;;1.50;1.30;;;;;;;18.16;55.61;99707.00;5091482;28;20221;-74
2023/05/10 08:34:30;;;;;;;2.03;1.43;;;;;;;18.44;54.49;99701.78;5091753;28;20603;-74
2023/05/10 08:36:59;;;;;;;2.00;1.23;;;;;;;18.15;54.97;99695.03;5091518;28;20198;-74
2023/05/10 08:39:26;;;;;;;1.83;1.27;;;;;;;17.65;53.79;99711.63;5091500;28;20225;-74
2023/05/10 08:41:59;;;;;;;1.70;1.13;;;;;;;17.63;55.63;99715.34;5091177;28;20278;-77
2023/05/10 08:44:27;;;;;;;1.93;1.60;;;;;;;18.18;53.78;99697.31;5091313;28;20216;-75
2023/05/10 08:46:55;;;;;;;1.47;1.37;;;;;;;18.27;51.82;99696.44;5091462;28;20199;-76
2023/05/10 08:49:23;;;;;;;1.90;1.40;;;;;;;18.70;49.73;99705.28;5091454;28;20231;-75
2023/05/10 08:51:53;;;;;;;3.33;1.60;;;;;;;18.84;51.82;99705.75;5091241;28;20203;-76
2023/05/10 08:54:22;;;;;;;2.00;1.60;;;;;;;18.55;51.40;99704.16;5091210;28;20649;-75
2023/05/10 08:56:49;;;;;;;1.50;1.40;;;;;;;18.56;49.77;99703.22;5091547;28;20197;-75
2023/05/10 08:59:16;;;;;;;1.33;1.20;;;;;;;18.17;50.76;99703.44;5091158;28;20225;-74
2023/05/10 09:01:45;;;;;;;2.43;1.50;;;;;;;17.93;49.40;99703.16;5091089;28;20202;-76
2023/05/10 09:04:14;;;;;;;1.53;1.30;;;;;;;18.33;52.22;99706.22;5091361;28;20229;-74
2023/05/10 09:06:41;;;;;;;1.40;1.30;;;;;;;18.37;51.47;99698.16;5091211;28;20202;-75
2023/05/10 09:09:07;;;;;;;2.00;1.27;;;;;;;17.86;49.32;99700.31;5090872;28;20583;-74
2023/05/10 09:11:36;;;;;;;1.63;1.30;;;;;;;17.95;50.38;99698.63;5090581;28;20206;-75
2023/05/10 09:14:03;;;;;;;2.20;1.53;;;;;;;17.68;52.48;99699.41;5091009;28;20309;-74
2023/05/10 09:16:30;;;;;;;1.63;1.40;;;;;;;18.54;53.20;99695.56;5090664;28;20288;-74
2023/05/10 09:18:57;;;;;;;4.23;1.40;;;;;;;19.03;49.75;99690.06;5090697;28;20600;-74
2023/05/10 09:21:26;;;;;;;3.20;1.50;;;;;;;19.16;52.90;99680.09;5090594;28;20199;-74
2023/05/10 09:23:54;;;;;;;1.87;1.57;;;;;;;18.82;49.80;99685.19;5090632;28;20212;-74
2023/05/10 09:26:23;;;;;;;1.63;1.30;;;;;;;18.53;50.87;99682.78;5089704;28;20194;-75
2023/05/10 09:28:56;;;;;;;1.80;1.50;;;;;;;18.32;48.76;99686.47;5090601;28;20229;-74
2023/05/10 09:31:23;;;;;;;1.37;1.20;;;;;;;18.63;48.13;99677.53;5090442;28;20216;-75
2023/05/10 09:33:51;;;;;;;1.83;1.40;;;;;;;18.77;48.05;99679.63;5090623;28;20223;-74
2023/05/10 09:36:18;;;;;;;1.53;1.40;;;;;;;18.81;49.31;99665.41;5090145;28;20230;-74
2023/05/10 09:38:49;;;;;;;2.63;1.57;;;;;;;18.66;49.49;99670.28;5090168;28;20211;-75
2023/05/10 09:41:19;;;;;;;2.13;1.53;;;;;;;18.71;49.70;99675.81;5090438;28;20200;-75
2023/05/10 09:43:47;;;;;;;1.73;1.27;;;;;;;18.88;48.74;99668.22;5090247;28;20242;-73
2023/05/10 09:46:16;;;;;;;1.73;1.40;;;;;;;19.37;52.22;99668.56;5090313;28;20212;-75
2023/05/10 09:48:44;;;;;;;2.50;1.57;;;;;;;19.61;47.49;99658.31;5090383;28;20575;-74
2023/05/10 09:51:11;;;;;;;1.17;1.00;;;;;;;19.72;44.52;99666.81;5090120;28;20515;-74
2023/05/10 09:53:38;;;;;;;1.23;1.13;;;;;;;20.44;47.93;99660.22;5090023;28;20219;-75
2023/05/10 09:56:05;;;;;;;1.50;1.30;;;;;;;20.23;45.99;99667.66;5090000;28;20236;-75
2023/05/10 09:58:32;;;;;;;1.93;1.70;;;;;;;20.46;47.22;99655.69;5090280;28;20619;-75
2023/05/10 10:00:59;;;;;;;1.47;1.10;;;;;;;20.71;44.53;99666.13;5090056;28;20200;-74
2023/05/10 10:03:29;;;;;;;2.00;1.50;;;;;;;19.99;44.02;99661.44;5089682;28;20302;-75
2023/05/10 10:05:56;;;;;;;1.40;1.30;;;;;;;20.20;46.79;99657.59;5090234;28;20204;-75
2023/05/10 10:08:23;;;;;;;1.33;1.20;;;;;;;20.36;44.97;99652.41;5089903;28;21760;-75
2023/05/10 10:10:50;;;;;;;1.30;1.00;;;;;;;20.50;43.95;99654.38;5089848;28;20232;-74
2023/05/10 10:13:17;;;;;;;2.03;1.10;;;;;;;20.13;43.01;99647.84;5089610;28;20221;-74
2023/05/10 10:15:45;;;;;;;1.57;1.30;;;;;;;20.11;44.47;99639.38;5089931;28;21198;-74
2023/05/10 10:18:14;;;;;;;3.13;1.47;;;;;;;20.07;41.55;99643.28;5089681;28;20281;-74
2023/05/10 10:20:43;;;;;;;1.67;1.23;;;;;;;20.51;42.31;99650.81;5089986;28;20631;-74
2023/05/10 10:23:10;;;;;;;1.77;1.27;;;;;;;20.60;42.85;99648.28;5089606;28;20223;-75
2023/05/10 10:25:38;;;;;;;2.27;1.40;;;;;;;20.52;45.61;99641.25;5089802;28;20269;-74
2023/05/10 10:28:23;;;;;;;1.53;1.40;;;;;;;20.64;47.70;99637.38;5089296;28;20216;-75
2023/05/10 10:30:54;;;;;;;1.80;1.50;;;;;;;20.85;44.64;99636.88;5089819;28;20212;-74
2023/05/10 10:33:52;;;;;;;2.10;1.40;;;;;;;20.35;43.74;99641.22;5089705;28;20223;-74
2023/05/10 10:36:21;;;;;;;1.77;1.30;;;;;;;20.47;45.04;99627.91;5089987;28;20311;-75
2023/05/10 10:39:10;;;;;;;1.37;1.27;;;;;;;21.01;45.67;99636.88;5093725;28;20248;-74
2023/05/10 10:41:40;;;;;;;2.13;1.57;;;;;;;20.44;44.55;99638.63;5093970;28;20805;-75
2023/05/10 10:44:41;;;;;;;3.63;1.40;;;;;;;19.82;45.34;99626.81;5093594;28;20216;-75
2023/05/10 10:47:27;;;;;;;2.97;1.20;;;;;;;19.63;46.87;99635.66;5093817;28;20299;-74
2023/05/10 10:50:05;;;;;;;1.40;1.20;;;;;;;19.85;44.72;99633.47;5093890;28;20202;-75
2023/05/10 10:52:34;;;;;;;2.23;1.17;;;;;;;20.08;44.54;99631.91;5093569;28;20201;-74
2023/05/10 10:55:03;;;;;;;2.40;1.40;;;;;;;20.49;43.78;99642.38;5093495;28;20588;-75
2023/05/10 10:57:33;;;;;;;2.93;1.10;;;;;;;20.34;42.33;99626.63;5093317;28;20197;-74
2023/05/10 11:00:23;;;;;;;2.10;1.50;;;;;;;20.88;44.47;99631.34;5093389;28;20203;-74
2023/05/10 11:02:52;;;;;;;1.90;1.50;;;;;;;21.25;42.46;99622.19;5093131;28;20222;-75
2023/05/10 11:05:41;;;;;;;2.13;1.50;;;;;;;20.51;42.52;99635.25;5093797;28;20247;-75
2023/05/10 11:08:12;;;;;;;2.77;1.53;;;;;;;20.34;42.86;99628.41;5088525;28;20279;-75
2023/05/10 11:10:39;;;;;;;1.40;1.27;;;;;;;20.63;44.74;99622.78;5093309;28;20211;-75
2023/05/10 11:13:09;;;;;;;2.73;1.47;;;;;;;20.41;44.85;99623.38;5093171;28;20624;-75
2023/05/10 11:15:38;;;;;;;1.63;1.37;;;;;;;20.07;44.09;99622.50;5093643;28;20654;-74
2023/05/10 11:18:21;;;;;;;1.90;1.47;;;;;;;20.45;44.49;99609.91;5092980;28;20228;-76
2023/05/10 11:20:52;;;;;;;2.07;1.43;;;;;;;20.42;44.21;99614.59;5091065;28;20202;-74
2023/05/10 11:23:21;;;;;;;1.60;1.17;;;;;;;20.99;43.70;99612.00;5092920;28;20232;-75
2023/05/10 11:25:49;;;;;;;1.60;1.30;;;;;;;20.85;42.66;99610.88;5092999;28;20201;-74
2023/05/10 11:28:18;;;;;;;1.40;1.17;;;;;;;21.10;42.15;99600.47;5092637;28;20224;-75
2023/05/10 11:30:45;;;;;;;1.83;1.40;;;;;;;20.97;41.30;99588.78;5092906;28;20205;-75
2023/05/10 11:33:17;;;;;;;1.80;1.37;;;;;;;20.21;41.33;99604.69;5092756;28;20253;-75
2023/05/10 11:35:44;;;;;;;1.43;1.27;;;;;;;20.26;45.39;99594.63;5092754;28;20245;-74
2023/05/10 11:38:12;;;;;;;1.50;1.40;;;;;;;20.50;45.66;99597.22;5092309;28;20815;-75
2023/05/10 11:40:41;;;;;;;1.60;1.40;;;;;;;20.23;43.41;99600.16;5092736;28;20206;-75